sensor_id;sensor_type;location;lat;lon;timestamp;temperature;humidity
36790;DHT22;22740;52.182;8.780;2023-05-07T00:01:38;11.10;99.90
36790;DHT22;22740;52.182;8.780;2023-05-07T00:07:40;11.00;99.90
36790;DHT22;22740;52.182;8.780;2023-05-07T00:13:42;11.00;99.90
36790;DHT22;22740;52.182;8.780;2023-05-07T00:19:44;11.00;99.90
36790;DHT22;22740;52.182;8.780;2023-05-07T00:25:46;11.00;99.90
36790;DHT22;22740;52.182;8.780;2023-05-07T00:31:49;11.00;99.90
36790;DHT22;22740;52.182;8.780;2023-05-07T00:37:51;11.00;99.90
36790;DHT22;22740;52.182;8.780;2023-05-07T00:43:53;11.10;99.90
36790;DHT22;22740;52.182;8.780;2023-05-07T00:49:57;11.20;99.90
36790;DHT22;22740;52.182;8.780;2023-05-07T00:55:59;11.10;99.90
36790;DHT22;22740;52.182;8.780;2023-05-07T01:02:03;11.00;99.90
36790;DHT22;22740;52.182;8.780;2023-05-07T01:08:05;11.00;99.90
36790;DHT22;22740;52.182;8.780;2023-05-07T01:14:08;10.90;99.90
36790;DHT22;22740;52.182;8.780;2023-05-07T01:20:12;10.80;99.90
36790;DHT22;22740;52.182;8.780;2023-05-07T01:26:15;10.80;99.90
36790;DHT22;22740;52.182;8.780;2023-05-07T01:32:21;10.70;99.90
36790;DHT22;22740;52.182;8.780;2023-05-07T01:38:24;10.70;99.90
36790;DHT22;22740;52.182;8.780;2023-05-07T01:44:27;10.70;99.90
36790;DHT22;22740;52.182;8.780;2023-05-07T01:50:30;10.70;99.90
36790;DHT22;22740;52.182;8.780;2023-05-07T01:56:33;10.80;99.90
36790;DHT22;22740;52.182;8.780;2023-05-07T02:02:35;10.70;99.90
36790;DHT22;22740;52.182;8.780;2023-05-07T02:08:37;10.70;99.90
36790;DHT22;22740;52.182;8.780;2023-05-07T02:14:39;10.70;99.90
36790;DHT22;22740;52.182;8.780;2023-05-07T02:20:41;10.60;99.90
36790;DHT22;22740;52.182;8.780;2023-05-07T02:26:42;10.70;99.90
36790;DHT22;22740;52.182;8.780;2023-05-07T02:32:44;10.60;99.90
36790;DHT22;22740;52.182;8.780;2023-05-07T02:38:46;10.40;99.90
36790;DHT22;22740;52.182;8.780;2023-05-07T02:44:48;10.40;99.90
36790;DHT22;22740;52.182;8.780;2023-05-07T02:50:53;10.40;99.90
36790;DHT22;22740;52.182;8.780;2023-05-07T02:56:55;10.40;99.90
36790;DHT22;22740;52.182;8.780;2023-05-07T03:02:56;10.30;99.90
36790;DHT22;22740;52.182;8.780;2023-05-07T03:08:58;10.40;99.90
36790;DHT22;22740;52.182;8.780;2023-05-07T03:15:00;10.40;99.90
36790;DHT22;22740;52.182;8.780;2023-05-07T03:21:02;10.40;99.90
36790;DHT22;22740;52.182;8.780;2023-05-07T03:27:04;10.40;99.90
36790;DHT22;22740;52.182;8.780;2023-05-07T03:33:06;10.30;99.90
36790;DHT22;22740;52.182;8.780;2023-05-07T03:39:08;10.30;99.90
36790;DHT22;22740;52.182;8.780;2023-05-07T03:45:10;10.40;99.90
36790;DHT22;22740;52.182;8.780;2023-05-07T03:51:13;10.20;99.90
36790;DHT22;22740;52.182;8.780;2023-05-07T03:57:15;10.20;99.90
36790;DHT22;22740;52.182;8.780;2023-05-07T04:03:17;10.20;99.90
36790;DHT22;22740;52.182;8.780;2023-05-07T04:09:19;10.10;99.90
36790;DHT22;22740;52.182;8.780;2023-05-07T04:15:21;10.10;99.90
36790;DHT22;22740;52.182;8.780;2023-05-07T04:21:23;10.20;99.90
36790;DHT22;22740;52.182;8.780;2023-05-07T04:27:25;10.20;99.90
36790;DHT22;22740;52.182;8.780;2023-05-07T04:33:26;10.30;99.90
36790;DHT22;22740;52.182;8.780;2023-05-07T04:39:28;10.40;99.90
36790;DHT22;22740;52.182;8.780;2023-05-07T04:45:30;10.50;99.90
36790;DHT22;22740;52.182;8.780;2023-05-07T04:51:32;10.40;99.90
36790;DHT22;22740;52.182;8.780;2023-05-07T04:57:34;10.30;99.90
36790;DHT22;22740;52.182;8.780;2023-05-07T05:03:36;10.30;99.90
36790;DHT22;22740;52.182;8.780;2023-05-07T05:09:38;10.30;99.90
36790;DHT22;22740;52.182;8.780;2023-05-07T05:15:40;10.30;99.90
36790;DHT22;22740;52.182;8.780;2023-05-07T05:21:42;10.40;99.90
36790;DHT22;22740;52.182;8.780;2023-05-07T05:27:44;10.30;99.90
36790;DHT22;22740;52.182;8.780;2023-05-07T05:33:46;10.30;99.90
36790;DHT22;22740;52.182;8.780;2023-05-07T05:39:47;10.50;99.90
36790;DHT22;22740;52.182;8.780;2023-05-07T05:45:49;10.70;99.90
36790;DHT22;22740;52.182;8.780;2023-05-07T05:51:51;10.70;99.90
36790;DHT22;22740;52.182;8.780;2023-05-07T05:57:53;10.70;99.90
36790;DHT22;22740;52.182;8.780;2023-05-07T06:03:55;10.60;99.90
36790;DHT22;22740;52.182;8.780;2023-05-07T06:09:57;10.50;99.90
36790;DHT22;22740;52.182;8.780;2023-05-07T06:15:59;10.50;99.90
36790;DHT22;22740;52.182;8.780;2023-05-07T06:22:01;10.50;99.90
36790;DHT22;22740;52.182;8.780;2023-05-07T06:28:04;10.70;99.90
36790;DHT22;22740;52.182;8.780;2023-05-07T06:34:06;10.70;99.90
36790;DHT22;22740;52.182;8.780;2023-05-07T06:40:08;10.60;99.90
36790;DHT22;22740;52.182;8.780;2023-05-07T06:46:10;10.80;99.90
36790;DHT22;22740;52.182;8.780;2023-05-07T06:52:12;11.10;99.90
36790;DHT22;22740;52.182;8.780;2023-05-07T06:58:14;11.10;99.90
36790;DHT22;22740;52.182;8.780;2023-05-07T07:04:16;11.00;99.90
36790;DHT22;22740;52.182;8.780;2023-05-07T07:10:21;11.10;99.90
36790;DHT22;22740;52.182;8.780;2023-05-07T07:16:23;11.10;99.90
36790;DHT22;22740;52.182;8.780;2023-05-07T07:22:25;11.10;99.90
36790;DHT22;22740;52.182;8.780;2023-05-07T07:28:27;11.20;99.90
36790;DHT22;22740;52.182;8.780;2023-05-07T07:34:28;11.20;99.90
36790;DHT22;22740;52.182;8.780;2023-05-07T07:40:30;11.20;99.90
36790;DHT22;22740;52.182;8.780;2023-05-07T07:46:32;11.50;99.90
36790;DHT22;22740;52.182;8.780;2023-05-07T07:52:34;11.60;99.90
36790;DHT22;22740;52.182;8.780;2023-05-07T07:58:36;11.70;99.90
36790;DHT22;22740;52.182;8.780;2023-05-07T08:04:39;11.80;99.90
36790;DHT22;22740;52.182;8.780;2023-05-07T08:10:42;11.90;99.90
36790;DHT22;22740;52.182;8.780;2023-05-07T08:16:44;12.00;99.90
36790;DHT22;22740;52.182;8.780;2023-05-07T08:22:46;11.80;99.90
36790;DHT22;22740;52.182;8.780;2023-05-07T08:28:48;12.10;99.90
36790;DHT22;22740;52.182;8.780;2023-05-07T08:34:50;12.20;99.90
36790;DHT22;22740;52.182;8.780;2023-05-07T08:40:55;12.40;99.90
36790;DHT22;22740;52.182;8.780;2023-05-07T08:46:58;12.80;99.90
36790;DHT22;22740;52.182;8.780;2023-05-07T08:53:05;12.50;99.90
36790;DHT22;22740;52.182;8.780;2023-05-07T08:59:07;12.60;99.90
36790;DHT22;22740;52.182;8.780;2023-05-07T09:05:09;12.50;99.90
36790;DHT22;22740;52.182;8.780;2023-05-07T09:11:12;12.60;99.90
36790;DHT22;22740;52.182;8.780;2023-05-07T09:17:16;12.90;99.90
36790;DHT22;22740;52.182;8.780;2023-05-07T09:23:18;12.90;99.90
36790;DHT22;22740;52.182;8.780;2023-05-07T09:29:20;13.10;99.90
36790;DHT22;22740;52.182;8.780;2023-05-07T09:35:22;13.50;99.90
36790;DHT22;22740;52.182;8.780;2023-05-07T09:41:27;13.50;99.90
36790;DHT22;22740;52.182;8.780;2023-05-07T09:47:32;13.70;99.90
36790;DHT22;22740;52.182;8.780;2023-05-07T09:53:37;13.50;99.90
36790;DHT22;22740;52.182;8.780;2023-05-07T09:59:41;14.00;99.90
36790;DHT22;22740;52.182;8.780;2023-05-07T10:05:44;14.20;99.90
36790;DHT22;22740;52.182;8.780;2023-05-07T10:11:49;14.40;99.90
36790;DHT22;22740;52.182;8.780;2023-05-07T10:17:51;14.10;99.90
36790;DHT22;22740;52.182;8.780;2023-05-07T10:24:25;14.30;99.90
36790;DHT22;22740;52.182;8.780;2023-05-07T10:36:42;14.70;99.90
36790;DHT22;22740;52.182;8.780;2023-05-07T10:43:05;14.60;99.90
36790;DHT22;22740;52.182;8.780;2023-05-07T10:49:10;14.60;99.90
36790;DHT22;22740;52.182;8.780;2023-05-07T11:08:09;15.00;99.90
36790;DHT22;22740;52.182;8.780;2023-05-07T11:14:11;15.40;99.90
36790;DHT22;22740;52.182;8.780;2023-05-07T11:20:14;15.20;99.90
36790;DHT22;22740;52.182;8.780;2023-05-07T11:26:16;15.10;99.90
36790;DHT22;22740;52.182;8.780;2023-05-07T11:32:25;15.20;99.90
36790;DHT22;22740;52.182;8.780;2023-05-07T11:38:35;15.40;99.90
36790;DHT22;22740;52.182;8.780;2023-05-07T11:44:44;16.10;99.90
36790;DHT22;22740;52.182;8.780;2023-05-07T11:51:01;15.80;99.90
36790;DHT22;22740;52.182;8.780;2023-05-07T11:57:03;15.20;99.90
36790;DHT22;22740;52.182;8.780;2023-05-07T12:03:05;15.40;99.90
36790;DHT22;22740;52.182;8.780;2023-05-07T12:09:07;15.60;99.90
36790;DHT22;22740;52.182;8.780;2023-05-07T12:15:16;15.50;99.90
36790;DHT22;22740;52.182;8.780;2023-05-07T12:21:18;15.80;99.90
36790;DHT22;22740;52.182;8.780;2023-05-07T12:27:19;15.80;99.90
36790;DHT22;22740;52.182;8.780;2023-05-07T12:33:24;15.70;99.90
36790;DHT22;22740;52.182;8.780;2023-05-07T12:39:26;15.30;99.90
36790;DHT22;22740;52.182;8.780;2023-05-07T12:45:28;15.30;99.90
36790;DHT22;22740;52.182;8.780;2023-05-07T12:51:31;15.30;99.90
36790;DHT22;22740;52.182;8.780;2023-05-07T12:57:41;15.40;99.90
36790;DHT22;22740;52.182;8.780;2023-05-07T13:03:48;15.60;99.90
36790;DHT22;22740;52.182;8.780;2023-05-07T13:09:52;15.80;99.90
36790;DHT22;22740;52.182;8.780;2023-05-07T13:15:53;15.70;99.90
36790;DHT22;22740;52.182;8.780;2023-05-07T13:21:55;15.60;99.90
36790;DHT22;22740;52.182;8.780;2023-05-07T13:27:57;15.30;99.90
36790;DHT22;22740;52.182;8.780;2023-05-07T13:34:11;15.40;99.90
36790;DHT22;22740;52.182;8.780;2023-05-07T13:40:12;15.60;99.90
36790;DHT22;22740;52.182;8.780;2023-05-07T13:46:14;15.20;99.90
36790;DHT22;22740;52.182;8.780;2023-05-07T13:52:17;15.40;99.90
36790;DHT22;22740;52.182;8.780;2023-05-07T13:58:18;15.40;99.90
36790;DHT22;22740;52.182;8.780;2023-05-07T14:04:20;15.50;99.90
36790;DHT22;22740;52.182;8.780;2023-05-07T14:10:22;15.50;99.90
36790;DHT22;22740;52.182;8.780;2023-05-07T14:16:24;15.60;99.90
36790;DHT22;22740;52.182;8.780;2023-05-07T14:22:26;15.70;99.90
36790;DHT22;22740;52.182;8.780;2023-05-07T14:28:28;16.00;99.90
36790;DHT22;22740;52.182;8.780;2023-05-07T14:34:30;16.20;99.90
36790;DHT22;22740;52.182;8.780;2023-05-07T14:40:32;16.60;99.90
36790;DHT22;22740;52.182;8.780;2023-05-07T14:46:34;16.50;99.90
36790;DHT22;22740;52.182;8.780;2023-05-07T14:52:36;16.70;99.90
36790;DHT22;22740;52.182;8.780;2023-05-07T14:58:38;17.00;99.90
36790;DHT22;22740;52.182;8.780;2023-05-07T15:04:39;16.60;99.90
36790;DHT22;22740;52.182;8.780;2023-05-07T15:10:48;16.90;99.90
36790;DHT22;22740;52.182;8.780;2023-05-07T15:16:50;16.20;99.90
36790;DHT22;22740;52.182;8.780;2023-05-07T15:22:54;16.10;99.90
36790;DHT22;22740;52.182;8.780;2023-05-07T15:28:56;16.20;99.90
36790;DHT22;22740;52.182;8.780;2023-05-07T15:34:58;16.10;99.90
36790;DHT22;22740;52.182;8.780;2023-05-07T15:41:00;15.90;99.90
36790;DHT22;22740;52.182;8.780;2023-05-07T15:47:02;15.60;99.90
36790;DHT22;22740;52.182;8.780;2023-05-07T15:53:04;15.50;99.90
36790;DHT22;22740;52.182;8.780;2023-05-07T15:59:06;15.50;99.90
36790;DHT22;22740;52.182;8.780;2023-05-07T16:05:08;15.40;99.90
36790;DHT22;22740;52.182;8.780;2023-05-07T16:11:12;15.30;99.90
36790;DHT22;22740;52.182;8.780;2023-05-07T16:17:13;15.30;99.90
36790;DHT22;22740;52.182;8.780;2023-05-07T16:23:15;15.30;99.90
36790;DHT22;22740;52.182;8.780;2023-05-07T16:29:17;15.20;99.90
36790;DHT22;22740;52.182;8.780;2023-05-07T16:35:21;15.00;99.90
36790;DHT22;22740;52.182;8.780;2023-05-07T16:41:22;15.00;99.90
36790;DHT22;22740;52.182;8.780;2023-05-07T16:47:24;15.00;99.90
36790;DHT22;22740;52.182;8.780;2023-05-07T16:53:28;15.00;99.90
36790;DHT22;22740;52.182;8.780;2023-05-07T16:59:30;15.00;99.90
36790;DHT22;22740;52.182;8.780;2023-05-07T17:05:33;14.90;99.90
36790;DHT22;22740;52.182;8.780;2023-05-07T17:11:35;14.80;99.90
36790;DHT22;22740;52.182;8.780;2023-05-07T17:17:38;14.70;99.90
36790;DHT22;22740;52.182;8.780;2023-05-07T17:23:40;14.50;99.90
36790;DHT22;22740;52.182;8.780;2023-05-07T17:29:42;14.40;99.90
36790;DHT22;22740;52.182;8.780;2023-05-07T17:35:44;14.20;99.90
36790;DHT22;22740;52.182;8.780;2023-05-07T17:41:46;14.00;99.90
36790;DHT22;22740;52.182;8.780;2023-05-07T17:47:47;13.90;99.90
36790;DHT22;22740;52.182;8.780;2023-05-07T17:53:50;13.80;99.90
36790;DHT22;22740;52.182;8.780;2023-05-07T17:59:51;13.70;99.90
36790;DHT22;22740;52.182;8.780;2023-05-07T18:05:53;13.50;99.90
36790;DHT22;22740;52.182;8.780;2023-05-07T18:11:55;13.50;99.90
36790;DHT22;22740;52.182;8.780;2023-05-07T18:17:57;13.30;99.90
36790;DHT22;22740;52.182;8.780;2023-05-07T18:23:59;13.20;99.90
36790;DHT22;22740;52.182;8.780;2023-05-07T18:30:02;13.00;99.90
36790;DHT22;22740;52.182;8.780;2023-05-07T18:36:04;12.90;99.90
36790;DHT22;22740;52.182;8.780;2023-05-07T18:42:06;12.90;99.90
36790;DHT22;22740;52.182;8.780;2023-05-07T18:48:09;12.70;99.90
36790;DHT22;22740;52.182;8.780;2023-05-07T18:54:11;12.60;99.90
36790;DHT22;22740;52.182;8.780;2023-05-07T19:00:13;12.50;99.90
36790;DHT22;22740;52.182;8.780;2023-05-07T19:06:15;12.40;99.90
36790;DHT22;22740;52.182;8.780;2023-05-07T19:12:17;12.30;99.90
36790;DHT22;22740;52.182;8.780;2023-05-07T19:18:19;12.20;99.90
36790;DHT22;22740;52.182;8.780;2023-05-07T19:24:21;12.00;99.90
36790;DHT22;22740;52.182;8.780;2023-05-07T19:30:23;12.00;99.90
36790;DHT22;22740;52.182;8.780;2023-05-07T19:36:25;11.90;99.90
36790;DHT22;22740;52.182;8.780;2023-05-07T19:42:27;11.80;99.90
36790;DHT22;22740;52.182;8.780;2023-05-07T19:48:29;11.70;99.90
36790;DHT22;22740;52.182;8.780;2023-05-07T19:54:30;11.60;99.90
36790;DHT22;22740;52.182;8.780;2023-05-07T20:00:32;11.50;99.90
36790;DHT22;22740;52.182;8.780;2023-05-07T20:06:34;11.40;99.90
36790;DHT22;22740;52.182;8.780;2023-05-07T20:12:36;11.30;99.90
36790;DHT22;22740;52.182;8.780;2023-05-07T20:18:39;11.20;99.90
36790;DHT22;22740;52.182;8.780;2023-05-07T20:24:41;11.30;99.90
36790;DHT22;22740;52.182;8.780;2023-05-07T20:30:42;11.20;99.90
36790;DHT22;22740;52.182;8.780;2023-05-07T20:36:44;11.10;99.90
36790;DHT22;22740;52.182;8.780;2023-05-07T20:42:47;11.10;99.90
36790;DHT22;22740;52.182;8.780;2023-05-07T20:48:49;11.20;99.90
36790;DHT22;22740;52.182;8.780;2023-05-07T20:54:50;11.20;99.90
36790;DHT22;22740;52.182;8.780;2023-05-07T21:00:54;11.00;99.90
36790;DHT22;22740;52.182;8.780;2023-05-07T21:06:56;11.00;99.90
36790;DHT22;22740;52.182;8.780;2023-05-07T21:12:58;11.00;99.90
36790;DHT22;22740;52.182;8.780;2023-05-07T21:19:00;11.10;99.90
36790;DHT22;22740;52.182;8.780;2023-05-07T21:25:02;11.00;99.90
36790;DHT22;22740;52.182;8.780;2023-05-07T21:31:04;11.20;99.90
36790;DHT22;22740;52.182;8.780;2023-05-07T21:37:05;11.30;99.90
36790;DHT22;22740;52.182;8.780;2023-05-07T21:43:07;11.50;99.90
36790;DHT22;22740;52.182;8.780;2023-05-07T21:49:09;11.30;99.90
36790;DHT22;22740;52.182;8.780;2023-05-07T21:55:11;11.40;99.90
36790;DHT22;22740;52.182;8.780;2023-05-07T22:01:14;11.40;99.90
36790;DHT22;22740;52.182;8.780;2023-05-07T22:07:16;11.40;99.90
36790;DHT22;22740;52.182;8.780;2023-05-07T22:13:20;11.30;99.90
36790;DHT22;22740;52.182;8.780;2023-05-07T22:19:22;11.20;99.90
36790;DHT22;22740;52.182;8.780;2023-05-07T22:25:24;11.10;99.90
36790;DHT22;22740;52.182;8.780;2023-05-07T22:31:27;11.10;99.90
36790;DHT22;22740;52.182;8.780;2023-05-07T22:37:29;11.00;99.90
36790;DHT22;22740;52.182;8.780;2023-05-07T22:43:31;10.80;99.90
36790;DHT22;22740;52.182;8.780;2023-05-07T22:49:34;10.50;99.90
36790;DHT22;22740;52.182;8.780;2023-05-07T22:55:35;10.60;99.90
36790;DHT22;22740;52.182;8.780;2023-05-07T23:01:37;10.60;99.90
36790;DHT22;22740;52.182;8.780;2023-05-07T23:07:39;10.80;99.90
36790;DHT22;22740;52.182;8.780;2023-05-07T23:13:41;10.70;99.90
36790;DHT22;22740;52.182;8.780;2023-05-07T23:19:43;10.50;99.90
36790;DHT22;22740;52.182;8.780;2023-05-07T23:25:44;10.50;99.90
36790;DHT22;22740;52.182;8.780;2023-05-07T23:31:47;10.00;99.90
36790;DHT22;22740;52.182;8.780;2023-05-07T23:37:49;9.70;99.90
36790;DHT22;22740;52.182;8.780;2023-05-07T23:43:51;9.70;99.90
36790;DHT22;22740;52.182;8.780;2023-05-07T23:49:52;9.70;99.90
36790;DHT22;22740;52.182;8.780;2023-05-07T23:55:54;10.10;99.90
